createdAt,value
2018-06-12T00:00:27.915Z,97757.20
2018-06-12T00:02:40.304Z,97760.65
2018-06-12T00:04:52.783Z,97758.83
2018-06-12T00:07:05.214Z,97759.02
2018-06-12T00:09:17.561Z,97760.00
2018-06-12T00:11:29.897Z,97758.02
2018-06-12T00:13:42.242Z,97762.64
2018-06-12T00:15:54.546Z,97763.28
2018-06-12T00:18:07.015Z,97761.64
2018-06-12T00:20:19.389Z,97757.83
2018-06-12T00:22:31.694Z,97757.00
2018-06-12T00:24:44.064Z,97764.91
2018-06-12T00:26:56.398Z,97763.77
2018-06-12T00:29:08.762Z,97764.08
2018-06-12T00:31:21.225Z,97763.59
2018-06-12T00:33:33.591Z,97771.48
2018-06-12T00:35:45.956Z,97766.53
2018-06-12T00:37:58.365Z,97768.03
2018-06-12T00:40:10.965Z,97761.77
2018-06-12T00:42:23.322Z,97761.26
2018-06-12T00:44:35.670Z,97756.62
2018-06-12T00:46:48.167Z,97758.92
2018-06-12T00:49:00.500Z,97756.28
2018-06-12T00:51:12.867Z,97760.87
2018-06-12T00:53:25.246Z,97765.81
2018-06-12T00:55:37.554Z,97767.94
2018-06-12T00:57:49.967Z,97761.66
2018-06-12T01:00:02.315Z,97761.80
2018-06-12T01:02:14.689Z,97762.74
2018-06-12T01:04:27.033Z,97766.50
2018-06-12T01:06:39.373Z,97762.25
2018-06-12T01:08:51.757Z,97764.42
2018-06-12T01:11:04.190Z,97760.34
2018-06-12T01:13:16.643Z,97761.84
2018-06-12T01:15:29.117Z,97766.38
2018-06-12T01:17:41.619Z,97758.61
2018-06-12T01:19:53.963Z,97762.71
2018-06-12T01:22:06.441Z,97763.34
2018-06-12T01:24:18.806Z,97762.73
2018-06-12T01:26:31.177Z,97768.64
2018-06-12T01:28:43.535Z,97758.93
2018-06-12T01:30:56.059Z,97762.25
2018-06-12T01:33:08.466Z,97762.42
2018-06-12T01:35:21.141Z,97764.70
2018-06-12T01:37:33.470Z,97768.01
2018-06-12T01:39:45.837Z,97769.80
2018-06-12T01:41:58.204Z,97762.41
2018-06-12T01:44:10.525Z,97768.19
2018-06-12T01:46:22.853Z,97767.06
2018-06-12T01:48:35.205Z,97759.16
2018-06-12T01:50:47.608Z,97758.30
2018-06-12T01:52:59.962Z,97758.28
2018-06-12T01:55:12.992Z,97752.69
2018-06-12T01:57:25.542Z,97751.38
2018-06-12T01:59:37.858Z,97754.83
2018-06-12T02:01:50.271Z,97758.28
2018-06-12T02:04:02.582Z,97759.10
2018-06-12T02:06:14.958Z,97762.38
2018-06-12T02:08:27.321Z,97767.30
2018-06-12T02:10:39.694Z,97768.80
2018-06-12T02:12:52.038Z,97764.66
2018-06-12T02:15:04.534Z,97772.75
2018-06-12T02:17:16.999Z,97773.40
2018-06-12T02:19:29.342Z,97770.78
2018-06-12T02:21:41.735Z,97771.15
2018-06-12T02:23:54.138Z,97769.55
2018-06-12T02:26:06.469Z,97776.14
2018-06-12T02:28:18.790Z,97768.66
2018-06-12T02:30:31.205Z,97767.34
2018-06-12T02:32:43.550Z,97769.83
2018-06-12T02:34:55.878Z,97764.11
2018-06-12T02:37:08.259Z,97764.80
2018-06-12T02:39:20.648Z,97763.98
2018-06-12T02:41:33.094Z,97760.03
2018-06-12T02:43:45.443Z,97754.59
2018-06-12T02:45:57.809Z,97750.52
2018-06-12T02:48:10.163Z,97738.98
2018-06-12T02:50:22.551Z,97738.80
2018-06-12T02:52:34.910Z,97737.48
2018-06-12T02:54:47.396Z,97737.97
2018-06-12T02:56:59.867Z,97739.29
2018-06-12T02:59:12.199Z,97741.75
2018-06-12T03:01:24.542Z,97743.75
2018-06-12T03:03:36.831Z,97739.97
2018-06-12T03:05:49.175Z,97738.80
2018-06-12T03:08:01.484Z,97739.97
2018-06-12T03:10:16.660Z,97729.26
2018-06-12T03:12:34.919Z,97732.22
2018-06-12T03:14:47.322Z,97727.61
2018-06-12T03:16:59.846Z,97734.51
2018-06-12T03:19:12.171Z,97728.74
2018-06-12T03:21:24.494Z,97722.66
2018-06-12T03:23:36.815Z,97724.11
2018-06-12T03:25:56.432Z,97732.83
2018-06-12T03:28:08.800Z,97731.14
2018-06-12T03:30:21.288Z,97729.45
2018-06-12T03:32:33.738Z,97734.08
2018-06-12T03:34:46.125Z,97730.77
2018-06-12T03:36:58.495Z,97732.45
2018-06-12T03:39:10.910Z,97730.45
2018-06-12T03:41:23.410Z,97729.30
2018-06-12T03:43:35.723Z,97735.38
2018-06-12T03:45:48.111Z,97738.81
2018-06-12T03:48:00.498Z,97735.69
2018-06-12T03:50:12.882Z,97733.24
2018-06-12T03:52:25.229Z,97736.69
2018-06-12T03:54:37.574Z,97738.66
2018-06-12T03:56:50.063Z,97745.61
2018-06-12T03:59:02.457Z,97742.67
2018-06-12T04:01:14.841Z,97745.30
2018-06-12T04:03:27.232Z,97744.14
2018-06-12T04:05:39.672Z,97742.32
2018-06-12T04:07:52.255Z,97739.23
2018-06-12T04:10:04.846Z,97739.04
2018-06-12T04:12:17.390Z,97736.91
2018-06-12T04:14:30.159Z,97738.73
2018-06-12T04:16:42.774Z,97731.28
2018-06-12T04:18:55.158Z,97736.39
2018-06-12T04:21:07.584Z,97739.85
2018-06-12T04:23:20.351Z,97739.86
2018-06-12T04:25:32.678Z,97737.95
2018-06-12T04:27:45.060Z,97733.50
2018-06-12T04:29:57.415Z,97736.09
2018-06-12T04:32:10.562Z,97730.47
2018-06-12T04:34:22.962Z,97727.84
2018-06-12T04:36:35.478Z,97726.19
2018-06-12T04:38:47.867Z,97720.44
2018-06-12T04:41:00.216Z,97719.02
2018-06-12T04:43:12.582Z,97718.39
2018-06-12T04:45:25.107Z,97726.62
2018-06-12T04:47:37.647Z,97726.12
2018-06-12T04:49:50.000Z,97721.68
2018-06-12T04:52:02.379Z,97720.05
2018-06-12T04:54:14.786Z,97725.06
2018-06-12T04:56:27.239Z,97722.78
2018-06-12T04:58:39.682Z,97722.78
2018-06-12T05:00:52.039Z,97725.10
2018-06-12T05:03:04.511Z,97723.78
2018-06-12T05:05:16.812Z,97721.47
2018-06-12T05:07:29.172Z,97722.47
2018-06-12T05:09:41.549Z,97729.23
2018-06-12T05:11:53.924Z,97729.55
2018-06-12T05:14:06.267Z,97721.79
2018-06-12T05:16:18.658Z,97726.42
2018-06-12T05:18:31.066Z,97731.02
2018-06-12T05:20:43.442Z,97730.52
2018-06-12T05:22:55.841Z,97724.78
2018-06-12T05:25:08.206Z,97730.37
2018-06-12T05:27:20.577Z,97727.91
2018-06-12T05:29:32.884Z,97728.23
2018-06-12T05:31:45.258Z,97732.86
2018-06-12T05:33:57.610Z,97735.02
2018-06-12T05:36:10.027Z,97731.04
2018-06-12T05:38:22.430Z,97735.00
2018-06-12T05:40:34.810Z,97733.83
2018-06-12T05:42:47.199Z,97728.88
2018-06-12T05:44:59.527Z,97732.19
2018-06-12T05:47:11.983Z,97734.50
2018-06-12T05:49:24.438Z,97737.28
2018-06-12T05:51:36.785Z,97736.47
2018-06-12T05:53:49.121Z,97738.95
2018-06-12T05:56:01.510Z,97737.28
2018-06-12T05:58:13.803Z,97742.06
2018-06-12T06:00:26.174Z,97744.05
2018-06-12T06:02:38.498Z,97742.23
2018-06-12T06:04:51.057Z,97750.79
2018-06-12T06:07:03.397Z,97751.29
2018-06-12T06:09:15.871Z,97746.19
2018-06-12T06:11:28.312Z,97750.47
2018-06-12T06:13:40.661Z,97762.69
2018-06-12T06:15:53.016Z,97761.19
2018-06-12T06:18:05.349Z,97767.46
2018-06-12T06:20:17.853Z,97765.64
2018-06-12T06:22:30.256Z,97769.92
2018-06-12T06:24:42.607Z,97774.08
2018-06-12T06:26:55.044Z,97774.25
2018-06-12T06:29:07.375Z,97774.25
2018-06-12T06:31:19.803Z,97776.74
2018-06-12T06:33:32.221Z,97775.92
2018-06-12T06:35:44.702Z,97774.92
2018-06-12T06:37:57.055Z,97779.55
2018-06-12T06:40:09.431Z,97771.47
2018-06-12T06:42:21.806Z,97774.09
2018-06-12T06:44:34.170Z,97773.45
2018-06-12T06:46:46.682Z,97762.55
2018-06-12T06:48:58.982Z,97768.65
2018-06-12T06:51:11.387Z,97773.09
2018-06-12T06:53:23.738Z,97770.45
2018-06-12T06:55:36.398Z,97774.92
2018-06-12T06:57:48.838Z,97773.92
2018-06-12T07:00:01.159Z,97772.59
2018-06-12T07:02:13.770Z,97775.23
2018-06-12T07:04:26.163Z,97779.19
2018-06-12T07:06:38.679Z,97778.23
2018-06-12T07:08:51.086Z,97776.23
2018-06-12T07:11:03.553Z,97776.22
2018-06-12T07:13:15.910Z,97775.90
2018-06-12T07:15:28.233Z,97773.92
2018-06-12T07:17:40.640Z,97773.28
2018-06-12T07:19:53.187Z,97775.57
2018-06-12T07:22:05.571Z,97780.52
2018-06-12T07:24:17.900Z,97777.05
2018-06-12T07:26:30.230Z,97776.23
2018-06-12T07:28:42.614Z,97770.64
2018-06-12T07:30:55.063Z,97777.54
2018-06-12T07:33:07.466Z,97765.02
2018-06-12T07:35:19.838Z,97774.24
2018-06-12T07:37:32.489Z,97774.58
2018-06-12T07:39:44.845Z,97772.09
2018-06-12T07:41:57.213Z,97775.05
2018-06-12T07:44:09.572Z,97775.05
2018-06-12T07:46:21.928Z,97772.77
2018-06-12T07:48:34.289Z,97776.84
2018-06-12T07:50:46.646Z,97774.05
2018-06-12T07:52:59.022Z,97777.87
2018-06-12T07:55:11.509Z,97777.02
2018-06-12T07:57:23.867Z,97780.78
2018-06-12T07:59:36.206Z,97775.65
2018-06-12T08:01:48.626Z,97773.14
2018-06-12T08:04:01.184Z,97771.64
2018-06-12T08:06:13.587Z,97766.17
2018-06-12T08:08:25.958Z,97765.50
2018-06-12T08:10:38.306Z,97768.43
2018-06-12T08:12:50.869Z,97764.11
2018-06-12T08:15:03.251Z,97765.91
2018-06-12T08:17:15.665Z,97766.02
2018-06-12T08:19:28.020Z,97768.66
2018-06-12T08:21:40.415Z,97771.12
2018-06-12T08:23:52.895Z,97768.32
2018-06-12T08:26:05.247Z,97763.00
2018-06-12T08:28:17.573Z,97769.11
2018-06-12T08:30:29.980Z,97769.14
2018-06-12T08:32:42.395Z,97774.23
2018-06-12T08:34:54.783Z,97775.75
2018-06-12T08:37:07.217Z,97768.63
2018-06-12T08:39:19.590Z,97772.44
2018-06-12T08:41:31.946Z,97766.02
2018-06-12T08:43:44.350Z,97768.18
2018-06-12T08:45:56.766Z,97765.75
2018-06-12T08:48:09.174Z,97767.09
2018-06-12T08:50:21.578Z,97765.75
2018-06-12T08:52:33.954Z,97767.56
2018-06-12T08:54:46.326Z,97765.47
2018-06-12T08:56:58.769Z,97766.81
2018-06-12T08:59:11.174Z,97769.77
2018-06-12T09:01:23.578Z,97771.77
2018-06-12T09:03:35.959Z,97768.78
2018-06-12T09:05:48.398Z,97767.77
2018-06-12T09:08:00.840Z,97766.43
2018-06-12T09:10:13.274Z,97766.88
2018-06-12T09:12:25.609Z,97768.81
2018-06-12T09:14:38.141Z,97762.69
2018-06-12T09:16:50.599Z,97765.99
2018-06-12T09:19:03.146Z,97765.14
2018-06-12T09:21:15.597Z,97760.30
2018-06-12T09:23:28.001Z,97757.66
2018-06-12T09:25:40.386Z,97759.01
2018-06-12T09:27:52.737Z,97757.81
2018-06-12T09:30:05.148Z,97757.24
2018-06-12T09:32:17.574Z,97760.41
2018-06-12T09:34:29.949Z,97756.66
2018-06-12T09:36:42.357Z,97758.79
2018-06-12T09:38:54.933Z,97750.86
2018-06-12T09:41:07.370Z,97753.85
2018-06-12T09:43:19.764Z,97751.71
2018-06-12T09:45:32.166Z,97752.48
2018-06-12T09:47:44.553Z,97764.88
2018-06-12T09:49:57.106Z,97753.17
2018-06-12T09:52:09.503Z,97759.41
2018-06-12T09:54:21.933Z,97752.11
2018-06-12T09:56:34.368Z,97754.59
2018-06-12T09:58:46.764Z,97753.75
2018-06-12T10:01:05.004Z,97753.91
2018-06-12T10:03:17.493Z,97755.98
2018-06-12T10:05:29.876Z,97753.45
2018-06-12T10:07:42.287Z,97753.00
2018-06-12T10:09:54.843Z,97755.16
2018-06-12T10:12:07.527Z,97752.48
2018-06-12T10:14:19.921Z,97749.80
2018-06-12T10:16:32.334Z,97747.23
2018-06-12T10:18:44.794Z,97750.11
2018-06-12T10:20:57.096Z,97741.26
2018-06-12T10:23:09.472Z,97749.74
2018-06-12T10:25:21.843Z,97742.61
2018-06-12T10:27:35.011Z,97744.52
2018-06-12T10:29:47.427Z,97741.56
2018-06-12T10:31:59.860Z,97744.95
2018-06-12T10:34:12.195Z,97743.56
2018-06-12T10:36:24.579Z,97735.80
2018-06-12T10:38:36.985Z,97740.70
2018-06-12T10:40:49.403Z,97728.86
2018-06-12T10:43:01.814Z,97733.59
2018-06-12T10:45:14.157Z,97724.53
2018-06-12T10:47:26.552Z,97719.11
2018-06-12T10:49:38.892Z,97712.35
2018-06-12T10:51:51.306Z,97709.69
2018-06-12T10:54:03.617Z,97712.95
2018-06-12T10:56:15.994Z,97712.95
2018-06-12T10:58:28.390Z,97714.41
2018-06-12T11:00:40.882Z,97708.61
2018-06-12T11:02:53.293Z,97713.03
2018-06-12T11:05:05.741Z,97710.67
2018-06-12T11:07:18.250Z,97704.22
2018-06-12T11:09:30.708Z,97702.84
2018-06-12T11:11:43.050Z,97702.64
2018-06-12T11:13:55.539Z,97703.10
2018-06-12T11:16:07.951Z,97693.95
2018-06-12T11:18:20.338Z,97692.72
2018-06-12T11:20:32.716Z,97693.10
2018-06-12T11:22:45.174Z,97699.02
2018-06-12T11:24:57.649Z,97701.73
2018-06-12T11:27:10.003Z,97697.97
2018-06-12T11:29:22.402Z,97705.33
2018-06-12T11:31:34.838Z,97707.77
2018-06-12T11:33:47.303Z,97696.53
2018-06-12T11:35:59.773Z,97699.78
2018-06-12T11:38:12.169Z,97690.81
2018-06-12T11:40:24.534Z,97697.80
2018-06-12T11:42:36.934Z,97689.35
2018-06-12T11:44:49.279Z,97698.41
2018-06-12T11:47:01.763Z,97700.75
2018-06-12T11:49:14.149Z,97694.34
2018-06-12T11:51:26.591Z,97692.98
2018-06-12T11:53:39.109Z,97697.88
2018-06-12T11:55:51.562Z,97706.84
2018-06-12T11:58:04.090Z,97710.23
2018-06-12T12:00:16.479Z,97711.95
2018-06-12T12:02:28.916Z,97719.48
2018-06-12T12:04:41.320Z,97728.78
2018-06-12T12:06:53.828Z,97741.52
2018-06-12T12:09:07.898Z,97749.80
2018-06-12T12:11:20.367Z,97754.11
2018-06-12T12:13:32.729Z,97759.55
2018-06-12T12:15:45.150Z,97761.05
2018-06-12T12:17:57.535Z,97758.92
2018-06-12T12:20:10.049Z,97762.73
2018-06-12T12:22:22.387Z,97770.95
2018-06-12T12:24:34.849Z,97767.34
2018-06-12T12:26:47.215Z,97775.37
2018-06-12T12:28:59.603Z,97768.11
2018-06-12T12:31:12.030Z,97757.23
2018-06-12T12:33:24.386Z,97764.14
2018-06-12T12:35:36.741Z,97770.23
2018-06-12T12:37:49.100Z,97770.05
2018-06-12T12:40:01.662Z,97770.05
2018-06-12T12:42:13.939Z,97766.77
2018-06-12T12:44:26.335Z,97767.23
2018-06-12T12:46:38.769Z,97766.10
2018-06-12T12:48:51.111Z,97767.42
2018-06-12T12:51:03.526Z,97767.92
2018-06-12T12:53:16.010Z,97767.28
2018-06-12T12:55:28.372Z,97758.05
2018-06-12T12:57:40.719Z,97755.42
2018-06-12T12:59:53.130Z,97754.59
2018-06-12T13:02:05.794Z,97758.05
2018-06-12T13:04:18.142Z,97753.60
2018-06-12T13:06:30.522Z,97753.92
2018-06-12T13:08:42.855Z,97752.60
2018-06-12T13:10:55.267Z,97752.74
2018-06-12T13:13:07.683Z,97753.59
2018-06-12T13:15:20.041Z,97765.78
2018-06-12T13:17:32.390Z,97757.73
2018-06-12T13:19:44.687Z,97755.09
2018-06-12T13:21:57.065Z,97746.83
2018-06-12T13:24:09.542Z,97748.16
2018-06-12T13:26:21.965Z,97753.74
2018-06-12T13:28:34.405Z,97752.28
2018-06-12T13:30:46.845Z,97754.23
2018-06-12T13:32:59.290Z,97762.64
2018-06-12T13:35:11.707Z,97760.33
2018-06-12T13:37:24.089Z,97762.47
2018-06-12T13:39:36.411Z,97760.33
2018-06-12T13:41:48.823Z,97771.19
2018-06-12T13:44:01.206Z,97763.47
2018-06-12T13:46:13.549Z,97755.73
2018-06-12T13:48:25.933Z,97750.78
2018-06-12T13:50:38.285Z,97747.78
2018-06-12T13:52:50.665Z,97750.09
2018-06-12T13:55:03.074Z,97746.96
2018-06-12T13:57:15.421Z,97748.78
2018-06-12T13:59:27.913Z,97752.05
2018-06-12T14:01:40.281Z,97750.09
2018-06-12T14:03:52.716Z,97745.15
2018-06-12T14:06:05.158Z,97744.83
2018-06-12T14:08:17.613Z,97744.83
2018-06-12T14:10:30.074Z,97751.60
2018-06-12T14:12:42.398Z,97752.11
2018-06-12T14:14:54.737Z,97744.20
2018-06-12T14:17:07.186Z,97741.62
2018-06-12T14:19:19.659Z,97741.45
2018-06-12T14:21:32.254Z,97734.68
2018-06-12T14:23:44.667Z,97734.01
2018-06-12T14:25:57.044Z,97732.38
2018-06-12T14:28:09.449Z,97728.71
2018-06-12T14:30:21.826Z,97720.16
2018-06-12T14:32:34.183Z,97720.80
2018-06-12T14:34:46.590Z,97712.08
2018-06-12T14:36:58.949Z,97711.91
2018-06-12T14:39:11.264Z,97707.97
2018-06-12T14:41:23.690Z,97707.97
2018-06-12T14:43:36.012Z,97707.31
2018-06-12T14:45:48.372Z,97705.80
2018-06-12T14:48:00.745Z,97703.48
2018-06-12T14:50:13.110Z,97704.15
2018-06-12T14:52:25.538Z,97712.88
2018-06-12T14:54:37.961Z,97723.09
2018-06-12T14:56:50.314Z,97726.06
2018-06-12T14:59:02.686Z,97714.18
2018-06-12T15:01:15.220Z,97705.29
2018-06-12T15:03:27.634Z,97698.96
2018-06-12T15:05:40.146Z,97694.65
2018-06-12T15:07:52.512Z,97693.74
2018-06-12T15:10:05.064Z,97697.34
2018-06-12T15:12:17.466Z,97704.92
2018-06-12T15:14:29.856Z,97700.83
2018-06-12T15:16:42.162Z,97696.89
2018-06-12T15:18:54.528Z,97703.53
2018-06-12T15:21:06.915Z,97703.20
2018-06-12T15:23:19.397Z,97703.43
2018-06-12T15:25:31.822Z,97702.24
2018-06-12T15:27:44.207Z,97699.60
2018-06-12T15:29:56.611Z,97696.28
2018-06-12T15:32:08.930Z,97693.61
2018-06-12T15:34:21.361Z,97698.73
2018-06-12T15:36:33.701Z,97702.53
2018-06-12T15:38:46.059Z,97702.50
2018-06-12T15:40:58.459Z,97699.36
2018-06-12T15:43:10.763Z,97693.63
2018-06-12T15:45:23.164Z,97689.70
2018-06-12T15:47:35.640Z,97685.45
2018-06-12T15:49:48.100Z,97691.19
2018-06-12T15:52:00.542Z,97692.19
2018-06-12T15:54:12.961Z,97691.20
2018-06-12T15:56:25.330Z,97688.36
2018-06-12T15:58:37.715Z,97691.46
2018-06-12T16:00:50.304Z,97680.86
2018-06-12T16:03:02.670Z,97685.59
2018-06-12T16:05:15.229Z,97683.61
2018-06-12T16:07:27.706Z,97682.07
2018-06-12T16:09:40.103Z,97687.04
2018-06-12T16:11:52.533Z,97685.41
2018-06-12T16:14:04.865Z,97674.67
2018-06-12T16:16:17.427Z,97676.31
2018-06-12T16:18:29.778Z,97670.70
2018-06-12T16:20:42.217Z,97668.73
2018-06-12T16:22:54.742Z,97666.88
2018-06-12T16:25:07.064Z,97666.91
2018-06-12T16:27:20.086Z,97667.72
2018-06-12T16:29:32.650Z,97668.75
2018-06-12T16:31:45.007Z,97674.38
2018-06-12T16:33:57.450Z,97677.37
2018-06-12T16:36:09.929Z,97672.80
2018-06-12T16:38:22.346Z,97672.47
2018-06-12T16:40:34.740Z,97662.25
2018-06-12T16:42:47.154Z,97657.00
2018-06-12T16:44:59.505Z,97652.84
2018-06-12T16:47:11.875Z,97650.02
2018-06-12T16:49:24.346Z,97650.34
2018-06-12T16:51:36.735Z,97645.72
2018-06-12T16:53:49.124Z,97647.86
2018-06-12T16:56:01.640Z,97640.64
2018-06-12T16:58:14.043Z,97644.77
2018-06-12T17:00:26.672Z,97638.00
2018-06-12T17:02:39.078Z,97651.58
2018-06-12T17:04:51.544Z,97646.79
2018-06-12T17:07:04.189Z,97644.81
2018-06-12T17:09:16.676Z,97648.44
2018-06-12T17:11:29.133Z,97644.31
2018-06-12T17:13:41.704Z,97647.13
2018-06-12T17:15:54.189Z,97655.56
2018-06-12T17:18:06.792Z,97652.73
2018-06-12T17:20:19.280Z,97655.56
2018-06-12T17:22:31.784Z,97657.70
2018-06-12T17:24:44.254Z,97655.08
2018-06-12T17:26:56.719Z,97654.44
2018-06-12T17:29:09.180Z,97653.48
2018-06-12T17:31:21.577Z,97653.63
2018-06-12T17:33:34.097Z,97651.20
2018-06-12T17:35:46.588Z,97656.31
2018-06-12T17:37:58.983Z,97656.83
2018-06-12T17:40:11.455Z,97659.13
2018-06-12T17:42:23.888Z,97654.36
2018-06-12T17:44:36.520Z,97660.31
2018-06-12T17:46:49.090Z,97653.23
2018-06-12T17:49:01.516Z,97662.16
2018-06-12T17:51:13.935Z,97659.84
2018-06-12T17:53:26.419Z,97663.15
2018-06-12T17:55:38.797Z,97669.75
2018-06-12T17:57:51.131Z,97675.03
2018-06-12T18:00:03.658Z,97671.09
2018-06-12T18:02:16.249Z,97671.21
2018-06-12T18:04:28.896Z,97669.72
2018-06-12T18:06:41.330Z,97665.59
2018-06-12T18:08:53.842Z,97668.92
2018-06-12T18:11:06.179Z,97675.83
2018-06-12T18:13:18.571Z,97675.33
2018-06-12T18:15:31.068Z,97667.75
2018-06-12T18:17:43.615Z,97675.33
2018-06-12T18:20:01.439Z,97673.20
2018-06-12T18:22:13.990Z,97671.21
2018-06-12T18:24:26.455Z,97667.74
2018-06-12T18:26:38.813Z,97671.05
2018-06-12T18:28:51.293Z,97675.51
2018-06-12T18:31:05.252Z,97672.70
2018-06-12T18:33:17.766Z,97676.66
2018-06-12T18:35:30.388Z,97668.56
2018-06-12T18:37:42.883Z,97669.72
2018-06-12T18:39:55.390Z,97672.36
2018-06-12T18:42:07.996Z,97674.00
2018-06-12T18:44:20.451Z,97671.04
2018-06-12T18:46:32.940Z,97681.58
2018-06-12T18:48:45.439Z,97685.36
2018-06-12T18:50:57.882Z,97684.03
2018-06-12T18:53:10.339Z,97682.04
2018-06-12T18:55:22.838Z,97693.39
2018-06-12T18:57:35.289Z,97689.13
2018-06-12T18:59:47.850Z,97688.12
2018-06-12T19:02:00.268Z,97690.58
2018-06-12T19:04:12.702Z,97691.06
2018-06-12T19:06:25.160Z,97699.10
2018-06-12T19:08:37.579Z,97699.92
2018-06-12T19:10:50.020Z,97695.78
2018-06-12T19:13:02.399Z,97706.14
2018-06-12T19:15:14.821Z,97706.13
2018-06-12T19:17:27.190Z,97711.20
2018-06-12T19:19:39.653Z,97717.59
2018-06-12T19:21:52.053Z,97719.21
2018-06-12T19:24:04.782Z,97720.38
2018-06-12T19:26:17.174Z,97723.01
2018-06-12T19:28:29.578Z,97724.63
2018-06-12T19:30:42.019Z,97720.83
2018-06-12T19:32:54.478Z,97736.62
2018-06-12T19:35:06.926Z,97737.28
2018-06-12T19:37:19.318Z,97734.28
2018-06-12T19:39:31.770Z,97740.86
2018-06-12T19:41:44.153Z,97747.42
2018-06-12T19:43:56.611Z,97749.41
2018-06-12T19:46:08.987Z,97747.57
2018-06-12T19:48:21.395Z,97753.96
2018-06-12T19:50:33.903Z,97751.63
2018-06-12T19:52:46.358Z,97751.12
2018-06-12T19:54:58.798Z,97757.53
2018-06-12T19:57:11.229Z,97761.99
2018-06-12T19:59:23.613Z,97762.66
2018-06-12T20:01:36.077Z,97759.70
2018-06-12T20:03:48.575Z,97764.60
2018-06-12T20:06:01.022Z,97761.64
2018-06-12T20:08:13.475Z,97765.09
2018-06-12T20:10:25.942Z,97766.55
2018-06-12T20:12:38.378Z,97775.27
2018-06-12T20:14:50.837Z,97778.02
2018-06-12T20:17:03.294Z,97780.97
2018-06-12T20:19:15.710Z,97778.48
2018-06-12T20:21:28.121Z,97777.44
2018-06-12T20:23:40.661Z,97778.45
2018-06-12T20:25:53.270Z,97779.75
2018-06-12T20:28:05.679Z,97781.20
2018-06-12T20:30:18.131Z,97780.97
2018-06-12T20:32:30.658Z,97785.58
2018-06-12T20:34:43.103Z,97780.26
2018-06-12T20:36:55.582Z,97778.64
2018-06-12T20:39:08.306Z,97789.59
2018-06-12T20:41:20.698Z,97788.45
2018-06-12T20:43:33.212Z,97786.61
2018-06-12T20:45:45.693Z,97783.62
2018-06-12T20:47:58.147Z,97782.50
2018-06-12T20:50:10.625Z,97783.62
2018-06-12T20:52:23.030Z,97786.45
2018-06-12T20:54:35.658Z,97787.42
2018-06-12T20:56:48.084Z,97792.19
2018-06-12T20:59:00.534Z,97792.03
2018-06-12T21:01:12.955Z,97790.09
2018-06-12T21:03:25.339Z,97790.72
2018-06-12T21:05:37.969Z,97792.69
2018-06-12T21:07:50.371Z,97791.37
2018-06-12T21:10:02.855Z,97791.51
2018-06-12T21:12:15.310Z,97786.41
2018-06-12T21:14:27.722Z,97792.95
2018-06-12T21:16:40.085Z,97794.11
2018-06-12T21:18:52.484Z,97795.84
2018-06-12T21:21:04.890Z,97785.92
2018-06-12T21:23:17.238Z,97794.89
2018-06-12T21:25:29.738Z,97794.06
2018-06-12T21:27:42.174Z,97792.39
2018-06-12T21:29:54.542Z,97799.62
2018-06-12T21:32:06.948Z,97792.39
2018-06-12T21:34:19.309Z,97794.62
2018-06-12T21:36:31.737Z,97795.70
2018-06-12T21:38:45.819Z,97800.45
2018-06-12T21:40:58.429Z,97802.88
2018-06-12T21:43:10.824Z,97803.66
2018-06-12T21:45:23.134Z,97806.09
2018-06-12T21:47:35.513Z,97803.02
2018-06-12T21:49:47.869Z,97804.48
2018-06-12T21:52:00.298Z,97804.61
2018-06-12T21:54:12.676Z,97811.83
2018-06-12T21:56:25.019Z,97813.27
2018-06-12T21:58:37.427Z,97809.65
2018-06-12T22:00:50.004Z,97811.91
2018-06-12T22:03:02.426Z,97814.54
2018-06-12T22:05:14.833Z,97815.68
2018-06-12T22:07:27.190Z,97824.71
2018-06-12T22:09:39.598Z,97819.17
2018-06-12T22:11:52.383Z,97824.42
2018-06-12T22:14:04.837Z,97824.17
2018-06-12T22:16:21.227Z,97829.88
2018-06-12T22:18:33.694Z,97828.02
2018-06-12T22:20:46.119Z,97833.52
2018-06-12T22:22:58.518Z,97829.88
2018-06-12T22:25:10.932Z,97839.55
2018-06-12T22:27:23.426Z,97836.10
2018-06-12T22:29:35.953Z,97837.33
2018-06-12T22:31:48.353Z,97851.72
2018-06-12T22:34:00.806Z,97849.53
2018-06-12T22:36:13.118Z,97847.34
2018-06-12T22:38:25.482Z,97846.85
2018-06-12T22:40:37.906Z,97839.88
2018-06-12T22:42:50.263Z,97843.09
2018-06-12T22:45:02.734Z,97842.39
2018-06-12T22:47:15.157Z,97847.58
2018-06-12T22:49:27.541Z,97843.98
2018-06-12T22:51:39.946Z,97839.38
2018-06-12T22:53:52.386Z,97842.62
2018-06-12T22:56:04.848Z,97840.48
2018-06-12T22:58:17.181Z,97847.86
2018-06-12T23:00:29.530Z,97847.47
2018-06-12T23:02:41.862Z,97849.88
2018-06-12T23:04:54.233Z,97852.57
2018-06-12T23:07:06.646Z,97851.41
2018-06-12T23:09:19.015Z,97852.78
2018-06-12T23:11:31.410Z,97852.88
2018-06-12T23:13:43.861Z,97851.20
2018-06-12T23:15:56.202Z,97851.84
2018-06-12T23:18:08.578Z,97857.76
2018-06-12T23:20:32.422Z,97858.73
2018-06-12T23:22:44.776Z,97863.28
2018-06-12T23:24:57.150Z,97859.28
2018-06-12T23:27:09.738Z,97855.02
2018-06-12T23:29:22.045Z,97858.73
2018-06-12T23:31:34.382Z,97851.84
2018-06-12T23:33:46.864Z,97861.36
2018-06-12T23:35:59.275Z,97860.87
2018-06-12T23:38:11.683Z,97854.53
2018-06-12T23:40:24.076Z,97856.66
2018-06-12T23:42:36.464Z,97858.03
2018-06-12T23:44:48.849Z,97857.14
2018-06-12T23:47:01.170Z,97863.70
2018-06-12T23:49:13.511Z,97861.30
2018-06-12T23:51:25.890Z,97864.92
2018-06-12T23:53:38.271Z,97863.43
2018-06-12T23:55:50.798Z,97862.88
2018-06-12T23:58:03.186Z,97855.50
